createdAt,value
2018-03-14T00:00:28.114Z,99821.84
2018-03-14T00:03:05.220Z,99815.53
2018-03-14T00:04:12.375Z,99814.68
2018-03-14T00:05:18.543Z,99815.52
2018-03-14T00:06:24.679Z,99815.96
2018-03-14T00:07:31.038Z,99815.73
2018-03-14T00:08:40.319Z,99812.29
2018-03-14T00:09:46.504Z,99816.53
2018-03-14T00:10:52.694Z,99811.58
2018-03-14T00:11:59.031Z,99812.48
2018-03-14T00:13:04.915Z,99815.50
2018-03-14T00:14:11.089Z,99816.28
2018-03-14T00:15:17.221Z,99814.80
2018-03-14T00:16:23.617Z,99824.97
2018-03-14T00:17:30.411Z,99822.94
2018-03-14T00:18:36.908Z,99820.74
2018-03-14T00:19:43.102Z,99824.30
2018-03-14T00:20:49.327Z,99828.75
2018-03-14T00:21:55.562Z,99827.36
2018-03-14T00:23:01.918Z,99828.52
2018-03-14T00:24:08.087Z,99826.69
2018-03-14T00:25:14.267Z,99832.80
2018-03-14T00:26:20.476Z,99830.02
2018-03-14T00:27:26.822Z,99836.23
2018-03-14T00:28:32.988Z,99841.88
2018-03-14T00:29:39.156Z,99839.52
2018-03-14T00:30:45.283Z,99838.88
2018-03-14T00:31:51.416Z,99839.73
2018-03-14T00:32:57.833Z,99851.16
2018-03-14T00:34:03.839Z,99848.50
2018-03-14T00:35:10.055Z,99845.06
2018-03-14T00:36:16.254Z,99849.91
2018-03-14T00:37:23.353Z,99845.15
2018-03-14T00:38:29.696Z,99841.22
2018-03-14T00:39:35.835Z,99848.70
2018-03-14T00:40:42.023Z,99849.13
2018-03-14T00:41:48.157Z,99845.72
2018-03-14T00:42:58.719Z,99850.38
2018-03-14T00:44:04.547Z,99844.58
2018-03-14T00:45:10.770Z,99846.88
2018-03-14T00:46:16.994Z,99848.56
2018-03-14T00:47:23.354Z,99844.70
2018-03-14T00:48:29.718Z,99853.73
2018-03-14T00:49:36.085Z,99849.93
2018-03-14T00:50:42.424Z,99850.14
2018-03-14T00:51:48.808Z,99848.30
2018-03-14T00:52:54.950Z,99853.96
2018-03-14T00:54:01.564Z,99852.98
2018-03-14T00:55:07.676Z,99852.02
2018-03-14T00:56:13.806Z,99860.67
2018-03-14T00:57:20.595Z,99859.83
2018-03-14T00:58:26.699Z,99857.23
2018-03-14T00:59:32.853Z,99861.45
2018-03-14T01:00:39.014Z,99863.08
2018-03-14T01:01:46.192Z,99861.21
2018-03-14T01:02:52.347Z,99863.09
2018-03-14T01:03:58.503Z,99861.85
2018-03-14T01:05:04.205Z,99863.87
2018-03-14T01:06:12.232Z,99861.69
2018-03-14T01:07:18.370Z,99863.30
2018-03-14T01:08:30.607Z,99868.20
2018-03-14T01:09:36.938Z,99867.22
2018-03-14T01:10:43.282Z,99868.41
2018-03-14T01:11:49.479Z,99867.06
2018-03-14T01:12:55.699Z,99872.17
2018-03-14T01:14:01.897Z,99867.77
2018-03-14T01:15:08.605Z,99869.45
2018-03-14T01:16:14.743Z,99865.05
2018-03-14T01:17:32.768Z,99869.72
2018-03-14T01:18:39.119Z,99873.27
2018-03-14T01:19:45.496Z,99875.65
2018-03-14T01:20:51.835Z,99870.42
2018-03-14T01:21:58.172Z,99873.85
2018-03-14T01:23:04.329Z,99871.08
2018-03-14T01:24:10.506Z,99875.53
2018-03-14T01:25:16.720Z,99872.63
2018-03-14T01:26:23.119Z,99875.48
2018-03-14T01:27:30.439Z,99875.75
2018-03-14T01:28:36.809Z,99876.66
2018-03-14T01:29:43.143Z,99876.94
2018-03-14T01:30:49.266Z,99874.26
2018-03-14T01:31:55.495Z,99873.14
2018-03-14T01:33:01.885Z,99870.02
2018-03-14T01:34:08.028Z,99869.48
2018-03-14T01:35:14.167Z,99869.78
2018-03-14T01:36:20.336Z,99872.27
2018-03-14T01:37:26.514Z,99870.43
2018-03-14T01:38:32.640Z,99869.44
2018-03-14T01:39:38.811Z,99870.89
2018-03-14T01:40:44.941Z,99861.25
2018-03-14T01:41:51.102Z,99869.24
2018-03-14T01:42:57.439Z,99870.89
2018-03-14T01:44:03.862Z,99869.08
2018-03-14T01:45:10.240Z,99868.70
2018-03-14T01:46:16.408Z,99868.08
2018-03-14T01:47:22.592Z,99867.04
2018-03-14T01:48:28.752Z,99867.31
2018-03-14T01:49:35.119Z,99873.25
2018-03-14T01:50:41.007Z,99871.87
2018-03-14T01:51:47.378Z,99874.89
2018-03-14T01:52:52.841Z,99877.36
2018-03-14T01:53:58.791Z,99876.91
2018-03-14T01:55:04.803Z,99885.84
2018-03-14T01:56:11.191Z,99880.28
2018-03-14T01:57:17.723Z,99878.66
2018-03-14T01:58:23.928Z,99873.12
2018-03-14T01:59:30.129Z,99878.92
2018-03-14T02:00:36.547Z,99873.83
2018-03-14T02:01:41.673Z,99875.08
2018-03-14T02:02:47.864Z,99881.50
2018-03-14T02:03:53.788Z,99883.77
2018-03-14T02:04:59.752Z,99880.99
2018-03-14T02:06:05.991Z,99882.23
2018-03-14T02:07:12.144Z,99886.45
2018-03-14T02:08:18.269Z,99886.03
2018-03-14T02:09:24.608Z,99879.33
2018-03-14T02:10:30.924Z,99878.45
2018-03-14T02:11:36.755Z,99882.47
2018-03-14T02:12:42.901Z,99884.36
2018-03-14T02:13:49.083Z,99875.98
2018-03-14T02:14:55.535Z,99891.80
2018-03-14T02:16:01.709Z,99890.36
2018-03-14T02:17:07.866Z,99892.44
2018-03-14T02:18:13.975Z,99889.29
2018-03-14T02:19:20.075Z,99887.05
2018-03-14T02:20:26.084Z,99890.48
2018-03-14T02:21:32.204Z,99890.44
2018-03-14T02:22:38.544Z,99887.44
2018-03-14T02:23:46.947Z,99890.05
2018-03-14T02:24:53.323Z,99889.77
2018-03-14T02:25:59.725Z,99888.38
2018-03-14T02:27:05.586Z,99889.23
2018-03-14T02:28:11.610Z,99894.93
2018-03-14T02:29:17.967Z,99894.20
2018-03-14T02:30:24.399Z,99890.17
2018-03-14T02:31:30.814Z,99892.98
2018-03-14T02:32:36.971Z,99895.83
2018-03-14T02:33:43.335Z,99893.69
2018-03-14T02:34:49.715Z,99893.24
2018-03-14T02:35:56.048Z,99893.52
2018-03-14T02:37:02.335Z,99898.77
2018-03-14T02:38:08.711Z,99901.59
2018-03-14T02:39:15.115Z,99899.36
2018-03-14T02:40:21.277Z,99903.12
2018-03-14T02:41:27.662Z,99902.80
2018-03-14T02:42:33.888Z,99907.98
2018-03-14T02:43:40.028Z,99915.60
2018-03-14T02:44:46.544Z,99910.62
2018-03-14T02:45:52.746Z,99918.98
2018-03-14T02:46:58.642Z,99917.52
2018-03-14T02:48:04.851Z,99922.34
2018-03-14T02:49:10.982Z,99923.61
2018-03-14T02:50:17.158Z,99926.47
2018-03-14T02:51:23.304Z,99924.31
2018-03-14T02:52:29.402Z,99922.64
2018-03-14T02:53:35.535Z,99925.22
2018-03-14T02:54:42.347Z,99923.17
2018-03-14T02:55:48.551Z,99922.34
2018-03-14T02:56:54.728Z,99928.59
2018-03-14T02:58:00.852Z,99924.48
2018-03-14T02:59:07.011Z,99925.03
2018-03-14T03:00:13.173Z,99926.97
2018-03-14T03:01:18.971Z,99921.91
2018-03-14T03:02:25.141Z,99915.70
2018-03-14T03:03:30.984Z,99924.52
2018-03-14T03:04:37.158Z,99921.39
2018-03-14T03:05:43.340Z,99931.52
2018-03-14T03:06:51.046Z,99924.35
2018-03-14T03:07:57.254Z,99928.93
2018-03-14T03:09:03.412Z,99929.56
2018-03-14T03:10:09.372Z,99922.55
2018-03-14T03:11:15.559Z,99929.31
2018-03-14T03:12:21.715Z,99923.94
2018-03-14T03:13:27.887Z,99925.48
2018-03-14T03:14:34.079Z,99927.08
2018-03-14T03:15:40.281Z,99925.22
2018-03-14T03:16:46.443Z,99928.93
2018-03-14T03:17:52.632Z,99926.92
2018-03-14T03:19:01.790Z,99926.09
2018-03-14T03:20:07.966Z,99930.66
2018-03-14T03:21:18.024Z,99929.92
2018-03-14T03:22:24.171Z,99924.80
2018-03-14T03:23:30.346Z,99932.13
2018-03-14T03:24:36.526Z,99927.72
2018-03-14T03:25:42.687Z,99924.48
2018-03-14T03:26:48.551Z,99933.83
2018-03-14T03:27:54.694Z,99934.02
2018-03-14T03:29:00.878Z,99932.86
2018-03-14T03:30:07.066Z,99935.44
2018-03-14T03:31:13.209Z,99922.01
2018-03-14T03:32:19.376Z,99934.05
2018-03-14T03:33:25.567Z,99938.16
2018-03-14T03:34:31.766Z,99931.38
2018-03-14T03:35:37.921Z,99932.06
2018-03-14T03:36:44.079Z,99939.83
2018-03-14T03:37:49.980Z,99941.11
2018-03-14T03:38:56.145Z,99936.25
2018-03-14T03:40:02.346Z,99938.72
2018-03-14T03:41:08.506Z,99936.00
2018-03-14T03:42:14.314Z,99944.90
2018-03-14T03:43:20.498Z,99946.55
2018-03-14T03:44:27.388Z,99949.20
2018-03-14T03:45:33.595Z,99940.65
2018-03-14T03:46:39.741Z,99948.69
2018-03-14T03:47:45.919Z,99943.13
2018-03-14T03:48:52.108Z,99949.58
2018-03-14T03:49:58.240Z,99949.55
2018-03-14T03:51:14.885Z,99949.33
2018-03-14T03:52:21.033Z,99953.98
2018-03-14T03:53:27.159Z,99954.14
2018-03-14T03:54:33.328Z,99955.87
2018-03-14T03:55:41.297Z,99958.47
2018-03-14T03:56:47.474Z,99960.76
2018-03-14T03:57:53.672Z,99964.42
2018-03-14T03:58:59.817Z,99958.03
2018-03-14T04:00:05.254Z,99958.33
2018-03-14T04:01:11.409Z,99960.95
2018-03-14T04:02:17.588Z,99964.34
2018-03-14T04:03:23.855Z,99964.67
2018-03-14T04:04:30.020Z,99965.81
2018-03-14T04:05:36.142Z,99968.41
2018-03-14T04:06:42.386Z,99965.59
2018-03-14T04:07:48.651Z,99966.25
2018-03-14T04:08:54.775Z,99967.55
2018-03-14T04:10:00.882Z,99967.23
2018-03-14T04:11:10.028Z,99970.95
2018-03-14T04:12:16.190Z,99971.02
2018-03-14T04:13:22.077Z,99964.20
2018-03-14T04:14:28.316Z,99971.20
2018-03-14T04:15:34.524Z,99972.08
2018-03-14T04:16:40.740Z,99967.12
2018-03-14T04:17:46.957Z,99967.95
2018-03-14T04:18:53.159Z,99969.13
2018-03-14T04:19:59.335Z,99967.08
2018-03-14T04:21:05.515Z,99973.62
2018-03-14T04:22:11.747Z,99970.48
2018-03-14T04:23:17.936Z,99978.27
2018-03-14T04:24:24.144Z,99979.00
2018-03-14T04:25:30.260Z,99971.78
2018-03-14T04:26:36.475Z,99974.52
2018-03-14T04:27:42.608Z,99970.05
2018-03-14T04:28:48.699Z,99972.93
2018-03-14T04:29:54.889Z,99983.72
2018-03-14T04:31:01.090Z,99977.41
2018-03-14T04:32:12.314Z,99980.69
2018-03-14T04:33:18.510Z,99979.45
2018-03-14T04:34:24.748Z,99977.59
2018-03-14T04:35:30.910Z,99981.27
2018-03-14T04:36:37.031Z,99984.34
2018-03-14T04:37:43.198Z,99982.08
2018-03-14T04:38:49.344Z,99990.43
2018-03-14T04:39:55.512Z,99989.78
2018-03-14T04:41:01.644Z,99985.17
2018-03-14T04:42:07.803Z,99986.60
2018-03-14T04:43:13.903Z,99992.66
2018-03-14T04:44:20.047Z,99991.25
2018-03-14T04:45:26.222Z,99992.31
2018-03-14T04:46:32.457Z,99986.00
2018-03-14T04:47:38.618Z,99984.70
2018-03-14T04:48:44.791Z,99990.45
2018-03-14T04:49:51.008Z,99992.23
2018-03-14T04:50:57.555Z,99991.31
2018-03-14T04:52:03.766Z,99992.30
2018-03-14T04:53:09.940Z,99992.73
2018-03-14T04:54:16.147Z,100000.95
2018-03-14T04:55:22.313Z,99997.81
2018-03-14T04:56:28.474Z,99986.03
2018-03-14T04:57:34.581Z,99988.64
2018-03-14T04:58:40.681Z,99988.59
2018-03-14T04:59:46.903Z,99989.18
2018-03-14T05:00:53.032Z,99994.80
2018-03-14T05:01:59.127Z,99989.95
2018-03-14T05:03:05.243Z,99992.39
2018-03-14T05:04:11.374Z,99999.06
2018-03-14T05:05:17.693Z,99994.83
2018-03-14T05:06:23.832Z,99992.98
2018-03-14T05:07:30.017Z,99996.07
2018-03-14T05:08:36.392Z,99994.97
2018-03-14T05:09:42.509Z,99993.36
2018-03-14T05:10:48.666Z,99994.20
2018-03-14T05:11:54.759Z,99994.63
2018-03-14T05:13:00.904Z,99991.94
2018-03-14T05:14:07.043Z,99989.02
2018-03-14T05:15:12.936Z,99997.62
2018-03-14T05:16:19.109Z,100000.36
2018-03-14T05:17:25.281Z,99996.22
2018-03-14T05:18:31.447Z,99997.80
2018-03-14T05:19:37.547Z,100002.69
2018-03-14T05:20:43.684Z,100003.56
2018-03-14T05:21:49.856Z,100002.45
2018-03-14T05:23:01.213Z,100002.11
2018-03-14T05:24:07.931Z,100006.20
2018-03-14T05:25:14.138Z,100011.41
2018-03-14T05:26:20.412Z,100007.09
2018-03-14T05:27:26.596Z,100003.25
2018-03-14T05:28:32.740Z,100006.20
2018-03-14T05:29:38.888Z,100011.34
2018-03-14T05:30:45.011Z,100009.58
2018-03-14T05:31:51.203Z,100010.25
2018-03-14T05:32:57.350Z,100015.66
2018-03-14T05:34:03.501Z,100020.09
2018-03-14T05:35:12.672Z,100017.41
2018-03-14T05:36:18.909Z,100017.92
2018-03-14T05:37:25.060Z,100015.39
2018-03-14T05:38:31.204Z,100015.83
2018-03-14T05:39:37.340Z,100015.66
2018-03-14T05:40:43.515Z,100019.56
2018-03-14T05:41:49.683Z,100013.20
2018-03-14T05:42:55.819Z,100018.40
2018-03-14T05:44:01.949Z,100018.92
2018-03-14T05:45:08.068Z,100024.31
2018-03-14T05:46:14.269Z,100023.89
2018-03-14T05:47:20.515Z,100022.91
2018-03-14T05:48:26.691Z,100025.62
2018-03-14T05:49:32.861Z,100026.77
2018-03-14T05:50:39.072Z,100029.96
2018-03-14T05:51:45.247Z,100031.27
2018-03-14T05:52:51.367Z,100029.27
2018-03-14T05:53:57.495Z,100032.71
2018-03-14T05:55:03.652Z,100029.69
2018-03-14T05:56:09.832Z,100029.98
2018-03-14T05:57:16.027Z,100028.66
2018-03-14T05:58:22.231Z,100026.75
2018-03-14T05:59:28.513Z,100023.44
2018-03-14T06:00:35.182Z,100027.53
2018-03-14T06:01:41.786Z,100033.03
2018-03-14T06:02:49.517Z,100028.34
2018-03-14T06:03:55.828Z,100027.81
2018-03-14T06:05:02.160Z,100028.70
2018-03-14T06:06:08.772Z,100029.77
2018-03-14T06:07:15.263Z,100030.82
2018-03-14T06:08:21.612Z,100027.69
2018-03-14T06:09:27.836Z,100032.78
2018-03-14T06:10:33.970Z,100030.42
2018-03-14T06:11:40.337Z,100036.50
2018-03-14T06:12:46.491Z,100033.64
2018-03-14T06:13:52.650Z,100034.14
2018-03-14T06:14:58.883Z,100033.42
2018-03-14T06:16:04.923Z,100037.66
2018-03-14T06:17:10.817Z,100032.38
2018-03-14T06:18:16.943Z,100039.30
2018-03-14T06:19:23.096Z,100036.98
2018-03-14T06:20:29.239Z,100036.04
2018-03-14T06:21:35.832Z,100040.11
2018-03-14T06:22:42.013Z,100043.86
2018-03-14T06:23:48.128Z,100040.55
2018-03-14T06:24:54.053Z,100046.73
2018-03-14T06:26:00.202Z,100048.20
2018-03-14T06:27:06.422Z,100051.73
2018-03-14T06:28:12.577Z,100051.00
2018-03-14T06:29:18.750Z,100056.72
2018-03-14T06:30:24.980Z,100054.28
2018-03-14T06:31:31.179Z,100059.55
2018-03-14T06:32:37.416Z,100055.25
2018-03-14T06:33:44.033Z,100057.41
2018-03-14T06:34:50.134Z,100061.18
2018-03-14T06:35:56.298Z,100068.73
2018-03-14T06:37:02.499Z,100060.59
2018-03-14T06:38:08.646Z,100066.18
2018-03-14T06:39:14.530Z,100071.05
2018-03-14T06:40:20.718Z,100068.63
2018-03-14T06:41:26.908Z,100070.59
2018-03-14T06:42:33.065Z,100069.88
2018-03-14T06:43:39.248Z,100074.30
2018-03-14T06:44:45.429Z,100067.28
2018-03-14T06:45:51.632Z,100072.55
2018-03-14T06:46:57.796Z,100067.24
2018-03-14T06:48:06.189Z,100067.11
2018-03-14T06:49:13.206Z,100066.54
2018-03-14T06:50:19.181Z,100061.55
2018-03-14T06:51:25.354Z,100069.19
2018-03-14T06:52:31.776Z,100073.88
2018-03-14T06:53:37.910Z,100072.16
2018-03-14T06:54:44.184Z,100069.81
2018-03-14T06:55:51.348Z,100070.69
2018-03-14T06:56:57.920Z,100063.86
2018-03-14T06:58:04.096Z,100069.65
2018-03-14T06:59:21.171Z,100080.55
2018-03-14T07:00:38.259Z,100081.72
2018-03-14T07:01:55.346Z,100080.14
2018-03-14T07:04:44.582Z,100083.98
2018-03-14T07:06:01.396Z,100080.03
2018-03-14T07:07:07.304Z,100080.55
2018-03-14T07:08:13.485Z,100082.67
2018-03-14T07:09:19.605Z,100084.83
2018-03-14T07:10:25.704Z,100086.89
2018-03-14T07:11:31.895Z,100081.84
2018-03-14T07:12:38.489Z,100082.47
2018-03-14T07:13:44.595Z,100088.98
2018-03-14T07:14:51.028Z,100084.88
2018-03-14T07:15:57.180Z,100086.27
2018-03-14T07:17:03.357Z,100089.31
2018-03-14T07:18:09.593Z,100090.63
2018-03-14T07:19:20.620Z,100091.45
2018-03-14T07:20:26.721Z,100088.94
2018-03-14T07:21:31.699Z,100087.25
2018-03-14T07:22:37.817Z,100090.75
2018-03-14T07:23:44.050Z,100090.59
2018-03-14T07:24:50.184Z,100092.42
2018-03-14T07:25:56.332Z,100092.81
2018-03-14T07:27:04.468Z,100096.97
2018-03-14T07:28:10.672Z,100093.81
2018-03-14T07:29:16.618Z,100102.63
2018-03-14T07:30:22.764Z,100102.56
2018-03-14T07:31:28.905Z,100102.91
2018-03-14T07:32:35.044Z,100098.94
2018-03-14T07:33:41.213Z,100099.13
2018-03-14T07:34:47.388Z,100103.70
2018-03-14T07:35:53.486Z,100105.48
2018-03-14T07:36:59.795Z,100103.35
2018-03-14T07:38:05.940Z,100108.48
2018-03-14T07:39:12.236Z,100107.82
2018-03-14T07:40:18.427Z,100110.23
2018-03-14T07:41:24.635Z,100120.23
2018-03-14T07:42:30.771Z,100112.59
2018-03-14T07:43:36.921Z,100121.21
2018-03-14T07:44:43.131Z,100115.86
2018-03-14T07:45:49.441Z,100114.33
2018-03-14T07:46:55.625Z,100121.83
2018-03-14T07:48:01.836Z,100121.80
2018-03-14T07:49:08.025Z,100124.56
2018-03-14T07:50:14.148Z,100124.58
2018-03-14T07:51:20.284Z,100115.43
2018-03-14T07:52:26.404Z,100122.04
2018-03-14T07:53:32.575Z,100129.43
2018-03-14T07:54:38.726Z,100132.09
2018-03-14T07:55:44.896Z,100131.62
2018-03-14T07:56:51.031Z,100131.36
2018-03-14T07:57:57.184Z,100134.08
2018-03-14T07:59:03.371Z,100129.36
2018-03-14T08:00:09.509Z,100139.64
2018-03-14T08:01:15.473Z,100136.34
2018-03-14T08:02:21.712Z,100132.86
2018-03-14T08:03:27.932Z,100132.05
2018-03-14T08:04:34.116Z,100133.53
2018-03-14T08:05:40.296Z,100135.23
2018-03-14T08:06:46.478Z,100130.06
2018-03-14T08:07:52.663Z,100139.71
2018-03-14T08:08:58.833Z,100135.66
2018-03-14T08:10:04.662Z,100126.73
2018-03-14T08:11:10.890Z,100132.65
2018-03-14T08:12:17.076Z,100132.05
2018-03-14T08:13:23.247Z,100134.56
2018-03-14T08:14:29.612Z,100135.58
2018-03-14T08:15:35.894Z,100132.09
2018-03-14T08:16:42.060Z,100136.42
2018-03-14T08:17:48.181Z,100131.09
2018-03-14T08:18:54.370Z,100135.52
2018-03-14T08:20:00.504Z,100132.86
2018-03-14T08:21:06.754Z,100130.06
2018-03-14T08:22:13.027Z,100129.95
2018-03-14T08:23:19.160Z,100127.77
2018-03-14T08:24:25.300Z,100129.56
2018-03-14T08:25:31.677Z,100126.35
2018-03-14T08:26:37.635Z,100131.99
2018-03-14T08:27:43.782Z,100129.80
2018-03-14T08:28:49.933Z,100127.77
2018-03-14T08:29:56.417Z,100127.70
2018-03-14T08:31:02.566Z,100122.17
2018-03-14T08:32:08.736Z,100126.26
2018-03-14T08:33:14.906Z,100128.80
2018-03-14T08:34:21.069Z,100127.98
2018-03-14T08:35:27.250Z,100129.08
2018-03-14T08:36:33.377Z,100126.39
2018-03-14T08:37:39.566Z,100127.16
2018-03-14T08:38:45.725Z,100126.33
2018-03-14T08:39:51.933Z,100133.55
2018-03-14T08:40:58.087Z,100128.03
2018-03-14T08:42:04.219Z,100126.59
2018-03-14T08:43:10.417Z,100122.42
2018-03-14T08:44:16.624Z,100125.95
2018-03-14T08:45:22.764Z,100128.83
2018-03-14T08:46:28.953Z,100124.23
2018-03-14T08:47:35.135Z,100126.20
2018-03-14T08:48:41.335Z,100128.46
2018-03-14T08:49:47.480Z,100127.32
2018-03-14T08:50:53.657Z,100131.20
2018-03-14T08:51:59.802Z,100130.85
2018-03-14T08:53:06.210Z,100133.25
2018-03-14T08:54:12.382Z,100130.20
2018-03-14T08:55:18.559Z,100129.48
2018-03-14T08:56:24.699Z,100125.23
2018-03-14T08:57:30.926Z,100132.05
2018-03-14T08:58:37.068Z,100127.75
2018-03-14T08:59:43.275Z,100132.84
2018-03-14T09:00:49.409Z,100137.20
2018-03-14T09:01:55.668Z,100139.44
2018-03-14T09:03:01.871Z,100139.04
2018-03-14T09:04:08.132Z,100143.17
2018-03-14T09:05:14.315Z,100140.33
2018-03-14T09:06:21.084Z,100142.84
2018-03-14T09:07:27.260Z,100141.97
2018-03-14T09:08:33.638Z,100142.48
2018-03-14T09:09:39.795Z,100147.42
2018-03-14T09:10:45.895Z,100150.84
2018-03-14T09:11:52.011Z,100146.74
2018-03-14T09:12:58.115Z,100148.78
2018-03-14T09:14:04.020Z,100148.46
2018-03-14T09:15:10.216Z,100152.91
2018-03-14T09:16:16.392Z,100148.92
2018-03-14T09:17:22.573Z,100153.38
2018-03-14T09:18:28.756Z,100154.67
2018-03-14T09:19:34.938Z,100150.76
2018-03-14T09:20:41.055Z,100149.97
2018-03-14T09:21:47.158Z,100151.49
2018-03-14T09:22:53.384Z,100150.40
2018-03-14T09:23:59.538Z,100150.64
2018-03-14T09:25:05.450Z,100155.33
2018-03-14T09:26:11.616Z,100152.59
2018-03-14T09:27:17.804Z,100157.95
2018-03-14T09:28:23.955Z,100153.19
2018-03-14T09:29:30.118Z,100155.45
2018-03-14T09:30:35.924Z,100151.75
2018-03-14T09:31:42.185Z,100157.30
2018-03-14T09:32:48.552Z,100156.55
2018-03-14T09:33:54.799Z,100159.22
2018-03-14T09:35:00.976Z,100151.96
2018-03-14T09:36:07.104Z,100162.64
2018-03-14T09:37:13.231Z,100160.71
2018-03-14T09:38:19.350Z,100162.28
2018-03-14T09:39:25.207Z,100162.16
2018-03-14T09:40:31.379Z,100158.73
2018-03-14T09:41:37.546Z,100159.23
2018-03-14T09:42:43.690Z,100162.16
2018-03-14T09:43:49.837Z,100163.59
2018-03-14T09:44:55.963Z,100164.31
2018-03-14T09:46:02.130Z,100161.64
2018-03-14T09:47:11.535Z,100162.83
2018-03-14T09:48:17.856Z,100164.97
2018-03-14T09:49:24.042Z,100165.24
2018-03-14T09:50:30.170Z,100163.23
2018-03-14T09:51:36.312Z,100165.90
2018-03-14T09:52:42.448Z,100165.23
2018-03-14T09:53:49.504Z,100162.39
2018-03-14T09:54:55.632Z,100163.98
2018-03-14T09:56:01.841Z,100166.49
2018-03-14T09:57:08.464Z,100163.47
2018-03-14T09:58:14.715Z,100166.92
2018-03-14T09:59:20.839Z,100163.94
2018-03-14T10:00:26.936Z,100163.25
2018-03-14T10:01:33.092Z,100165.86
2018-03-14T10:02:39.204Z,100163.44
2018-03-14T10:03:45.371Z,100162.36
2018-03-14T10:04:51.532Z,100167.08
2018-03-14T10:05:57.683Z,100166.76
2018-03-14T10:07:03.808Z,100166.52
2018-03-14T10:08:09.969Z,100167.91
2018-03-14T10:09:16.380Z,100167.66
2018-03-14T10:10:22.669Z,100160.52
2018-03-14T10:11:28.854Z,100164.72
2018-03-14T10:12:35.004Z,100162.72
2018-03-14T10:13:41.145Z,100166.62
2018-03-14T10:14:47.292Z,100165.33
2018-03-14T10:15:53.472Z,100169.13
2018-03-14T10:16:59.656Z,100170.95
2018-03-14T10:18:05.874Z,100170.94
2018-03-14T10:19:12.006Z,100165.23
2018-03-14T10:20:18.219Z,100166.86
2018-03-14T10:21:24.507Z,100171.32
2018-03-14T10:22:33.550Z,100172.40
2018-03-14T10:23:39.666Z,100172.95
2018-03-14T10:24:45.884Z,100170.61
2018-03-14T10:25:52.098Z,100175.61
2018-03-14T10:26:58.452Z,100166.36
2018-03-14T10:28:03.885Z,100170.11
2018-03-14T10:29:10.045Z,100171.05
2018-03-14T10:30:16.237Z,100171.60
2018-03-14T10:31:23.143Z,100176.45
2018-03-14T10:32:29.383Z,100180.48
2018-03-14T10:33:35.573Z,100182.16
2018-03-14T10:34:41.788Z,100180.30
2018-03-14T10:35:47.945Z,100179.87
2018-03-14T10:36:54.140Z,100184.98
2018-03-14T10:38:00.279Z,100179.65
2018-03-14T10:39:05.259Z,100179.00
2018-03-14T10:40:11.421Z,100179.20
2018-03-14T10:41:17.626Z,100181.30
2018-03-14T10:42:28.939Z,100173.38
2018-03-14T10:43:36.348Z,100181.72
2018-03-14T10:44:42.541Z,100175.34
2018-03-14T10:45:48.655Z,100180.61
2018-03-14T10:46:54.484Z,100189.30
2018-03-14T10:48:00.727Z,100184.17
2018-03-14T10:49:06.600Z,100183.67
2018-03-14T10:50:12.794Z,100184.64
2018-03-14T10:51:19.001Z,100182.44
2018-03-14T10:52:25.301Z,100186.81
2018-03-14T10:53:31.460Z,100193.56
2018-03-14T10:54:37.602Z,100186.28
2018-03-14T10:55:43.823Z,100182.92
2018-03-14T10:56:49.931Z,100188.12
2018-03-14T10:57:56.114Z,100191.28
2018-03-14T10:59:02.261Z,100188.55
2018-03-14T11:00:07.592Z,100189.39
2018-03-14T11:01:13.551Z,100182.66
2018-03-14T11:02:22.425Z,100183.22
2018-03-14T11:03:34.140Z,100181.36
2018-03-14T11:04:40.281Z,100181.02
2018-03-14T11:05:46.478Z,100173.99
2018-03-14T11:06:52.655Z,100174.50
2018-03-14T11:07:58.882Z,100173.84
2018-03-14T11:09:04.384Z,100170.69
2018-03-14T11:10:10.492Z,100169.94
2018-03-14T11:11:17.266Z,100168.95
2018-03-14T11:12:23.410Z,100166.77
2018-03-14T11:13:29.607Z,100171.06
2018-03-14T11:14:36.020Z,100168.12
2018-03-14T11:15:42.192Z,100170.92
2018-03-14T11:16:48.392Z,100170.80
2018-03-14T11:17:54.619Z,100173.73
2018-03-14T11:19:00.795Z,100172.49
2018-03-14T11:20:06.984Z,100167.86
2018-03-14T11:21:13.370Z,100168.20
2018-03-14T11:22:19.540Z,100168.05
2018-03-14T11:23:25.716Z,100167.45
2018-03-14T11:24:31.889Z,100167.78
2018-03-14T11:25:38.149Z,100163.01
2018-03-14T11:26:44.560Z,100160.15
2018-03-14T11:27:50.778Z,100167.73
2018-03-14T11:28:56.988Z,100161.16
2018-03-14T11:30:03.171Z,100158.78
2018-03-14T11:31:08.985Z,100162.25
2018-03-14T11:32:15.161Z,100163.45
2018-03-14T11:33:21.349Z,100163.91
2018-03-14T11:34:27.496Z,100161.78
2018-03-14T11:35:33.705Z,100158.30
2018-03-14T11:36:39.895Z,100159.47
2018-03-14T11:37:46.107Z,100157.78
2018-03-14T11:38:52.333Z,100158.92
2018-03-14T11:39:58.501Z,100160.77
2018-03-14T11:41:04.733Z,100159.85
2018-03-14T11:42:10.897Z,100162.58
2018-03-14T11:43:16.813Z,100157.55
2018-03-14T11:44:23.021Z,100154.20
2018-03-14T11:45:29.248Z,100157.98
2018-03-14T11:46:35.400Z,100154.97
2018-03-14T11:47:41.362Z,100162.03
2018-03-14T11:48:47.495Z,100151.84
2018-03-14T11:49:53.687Z,100157.31
2018-03-14T11:50:59.888Z,100164.34
2018-03-14T11:52:05.771Z,100155.74
2018-03-14T11:53:11.955Z,100161.68
2018-03-14T11:54:18.218Z,100167.03
2018-03-14T11:55:24.428Z,100169.83
2018-03-14T11:56:30.635Z,100174.85
2018-03-14T11:57:36.816Z,100169.20
2018-03-14T11:58:43.306Z,100169.91
2018-03-14T11:59:49.771Z,100168.34
2018-03-14T12:00:56.170Z,100170.28
2018-03-14T12:02:02.336Z,100173.38
2018-03-14T12:03:08.539Z,100167.78
2018-03-14T12:04:14.748Z,100168.70
2018-03-14T12:05:21.172Z,100171.09
2018-03-14T12:06:27.319Z,100165.27
2018-03-14T12:07:33.495Z,100164.06
2018-03-14T12:08:39.644Z,100165.00
2018-03-14T12:09:45.881Z,100162.74
2018-03-14T12:10:52.079Z,100159.25
2018-03-14T12:11:58.276Z,100166.12
2018-03-14T12:13:04.134Z,100165.94
2018-03-14T12:14:10.375Z,100164.77
2018-03-14T12:15:16.873Z,100168.84
2018-03-14T12:16:23.084Z,100157.15
2018-03-14T12:17:29.259Z,100162.77
2018-03-14T12:18:35.490Z,100159.50
2018-03-14T12:19:41.884Z,100158.73
2018-03-14T12:20:48.092Z,100156.44
2018-03-14T12:21:54.693Z,100159.91
2018-03-14T12:23:00.864Z,100155.85
2018-03-14T12:24:07.043Z,100151.52
2018-03-14T12:25:13.283Z,100154.52
2018-03-14T12:26:19.543Z,100153.58
2018-03-14T12:27:25.950Z,100148.42
2018-03-14T12:28:32.207Z,100149.66
2018-03-14T12:29:38.347Z,100154.80
2018-03-14T12:30:44.569Z,100150.08
2018-03-14T12:31:50.761Z,100150.31
2018-03-14T12:32:56.980Z,100147.94
2018-03-14T12:34:16.189Z,100144.34
2018-03-14T12:35:22.497Z,100149.09
2018-03-14T12:36:28.715Z,100145.77
2018-03-14T12:37:35.879Z,100145.34
2018-03-14T12:38:42.076Z,100151.06
2018-03-14T12:39:48.294Z,100148.72
2018-03-14T12:40:54.531Z,100146.53
2018-03-14T12:42:00.761Z,100144.73
2018-03-14T12:43:06.967Z,100145.48
2018-03-14T12:44:13.206Z,100144.97
2018-03-14T12:45:19.409Z,100148.09
2018-03-14T12:46:25.702Z,100147.09
2018-03-14T12:47:31.896Z,100143.22
2018-03-14T12:48:38.144Z,100140.99
2018-03-14T12:49:44.321Z,100141.75